sensor_id;sensor_type;location;lat;lon;timestamp;pressure;altitude;pressure_sealevel;temperature;humidity
7376;BME280;3728;42.266;24.944;2022-12-18T00:01:45;100195.56;;;9.86;100.00
7376;BME280;3728;42.266;24.944;2022-12-18T00:04:20;100204.88;;;10.21;100.00
7376;BME280;3728;42.266;24.944;2022-12-18T00:06:49;100208.03;;;10.97;100.00
7376;BME280;3728;42.266;24.944;2022-12-18T00:09:20;100204.59;;;10.22;100.00
7376;BME280;3728;42.266;24.944;2022-12-18T00:11:50;100213.47;;;10.26;100.00
7376;BME280;3728;42.266;24.944;2022-12-18T00:14:18;100223.63;;;10.04;100.00
7376;BME280;3728;42.266;24.944;2022-12-18T00:16:46;100230.41;;;9.82;100.00
7376;BME280;3728;42.266;24.944;2022-12-18T00:19:14;100221.31;;;9.45;100.00
7376;BME280;3728;42.266;24.944;2022-12-18T00:21:43;100210.19;;;9.35;100.00
7376;BME280;3728;42.266;24.944;2022-12-18T00:24:11;100201.31;;;9.31;100.00
7376;BME280;3728;42.266;24.944;2022-12-18T00:26:39;100198.72;;;9.26;100.00
7376;BME280;3728;42.266;24.944;2022-12-18T00:29:10;100205.47;;;9.37;100.00
7376;BME280;3728;42.266;24.944;2022-12-18T00:31:42;100223.44;;;9.43;100.00
7376;BME280;3728;42.266;24.944;2022-12-18T00:34:12;100243.22;;;9.83;100.00
7376;BME280;3728;42.266;24.944;2022-12-18T00:36:40;100247.75;;;10.25;100.00
7376;BME280;3728;42.266;24.944;2022-12-18T00:39:10;100252.00;;;9.92;100.00
7376;BME280;3728;42.266;24.944;2022-12-18T00:41:39;100256.34;;;9.78;100.00
7376;BME280;3728;42.266;24.944;2022-12-18T00:44:25;100264.72;;;9.75;100.00
7376;BME280;3728;42.266;24.944;2022-12-18T00:46:52;100276.22;;;9.79;100.00
7376;BME280;3728;42.266;24.944;2022-12-18T00:49:20;100284.06;;;9.79;100.00
7376;BME280;3728;42.266;24.944;2022-12-18T00:51:48;100285.03;;;9.88;100.00
7376;BME280;3728;42.266;24.944;2022-12-18T00:54:16;100293.94;;;10.40;100.00
7376;BME280;3728;42.266;24.944;2022-12-18T00:56:44;100277.09;;;9.98;100.00
7376;BME280;3728;42.266;24.944;2022-12-18T00:59:17;100289.47;;;9.88;100.00
7376;BME280;3728;42.266;24.944;2022-12-18T01:01:45;100295.91;;;10.29;100.00
7376;BME280;3728;42.266;24.944;2022-12-18T01:04:14;100290.03;;;10.61;100.00
7376;BME280;3728;42.266;24.944;2022-12-18T01:06:44;100284.25;;;10.16;100.00
7376;BME280;3728;42.266;24.944;2022-12-18T01:09:12;100288.94;;;10.19;100.00
7376;BME280;3728;42.266;24.944;2022-12-18T01:11:40;100288.31;;;9.99;100.00
7376;BME280;3728;42.266;24.944;2022-12-18T01:14:07;100292.94;;;10.12;100.00
7376;BME280;3728;42.266;24.944;2022-12-18T01:16:36;100274.69;;;9.73;100.00
7376;BME280;3728;42.266;24.944;2022-12-18T01:19:04;100278.94;;;9.64;100.00
7376;BME280;3728;42.266;24.944;2022-12-18T01:21:32;100280.38;;;10.09;100.00
7376;BME280;3728;42.266;24.944;2022-12-18T01:24:03;100275.94;;;9.81;100.00
7376;BME280;3728;42.266;24.944;2022-12-18T01:26:31;100273.72;;;9.64;100.00
7376;BME280;3728;42.266;24.944;2022-12-18T01:28:58;100271.09;;;9.64;100.00
7376;BME280;3728;42.266;24.944;2022-12-18T01:31:29;100271.88;;;9.64;100.00
7376;BME280;3728;42.266;24.944;2022-12-18T01:34:01;100286.19;;;9.77;100.00
7376;BME280;3728;42.266;24.944;2022-12-18T01:36:32;100285.53;;;9.90;100.00
7376;BME280;3728;42.266;24.944;2022-12-18T01:39:06;100286.63;;;9.84;100.00
7376;BME280;3728;42.266;24.944;2022-12-18T01:41:37;100282.31;;;9.70;100.00
7376;BME280;3728;42.266;24.944;2022-12-18T01:47:45;100287.63;;;9.59;100.00
7376;BME280;3728;42.266;24.944;2022-12-18T01:50:38;100283.97;;;9.60;100.00
7376;BME280;3728;42.266;24.944;2022-12-18T01:53:17;100287.59;;;9.64;100.00
7376;BME280;3728;42.266;24.944;2022-12-18T01:55:52;100287.72;;;9.78;100.00
7376;BME280;3728;42.266;24.944;2022-12-18T02:01:13;100296.63;;;9.77;100.00
7376;BME280;3728;42.266;24.944;2022-12-18T02:03:42;100292.88;;;9.88;100.00
7376;BME280;3728;42.266;24.944;2022-12-18T02:06:16;100292.50;;;10.00;100.00
7376;BME280;3728;42.266;24.944;2022-12-18T02:09:09;100299.66;;;9.89;100.00
7376;BME280;3728;42.266;24.944;2022-12-18T02:20:05;100297.72;;;9.71;100.00
7376;BME280;3728;42.266;24.944;2022-12-18T02:28:30;100299.44;;;9.86;100.00
7376;BME280;3728;42.266;24.944;2022-12-18T02:31:06;100306.75;;;9.89;100.00
7376;BME280;3728;42.266;24.944;2022-12-18T02:33:39;100311.47;;;10.15;100.00
7376;BME280;3728;42.266;24.944;2022-12-18T02:36:09;100318.13;;;10.32;100.00
7376;BME280;3728;42.266;24.944;2022-12-18T02:38:39;100329.38;;;10.32;100.00
7376;BME280;3728;42.266;24.944;2022-12-18T02:41:12;100327.88;;;10.26;100.00
7376;BME280;3728;42.266;24.944;2022-12-18T02:43:52;100327.13;;;10.20;100.00
7376;BME280;3728;42.266;24.944;2022-12-18T02:46:29;100307.38;;;10.04;100.00
7376;BME280;3728;42.266;24.944;2022-12-18T02:49:18;100303.25;;;9.98;100.00
7376;BME280;3728;42.266;24.944;2022-12-18T03:01:16;100307.25;;;9.91;100.00
7376;BME280;3728;42.266;24.944;2022-12-18T03:03:57;100317.97;;;9.89;100.00
7376;BME280;3728;42.266;24.944;2022-12-18T03:06:42;100311.69;;;9.90;100.00
7376;BME280;3728;42.266;24.944;2022-12-18T03:09:19;100320.81;;;9.93;100.00
7376;BME280;3728;42.266;24.944;2022-12-18T03:11:56;100329.16;;;9.95;100.00
7376;BME280;3728;42.266;24.944;2022-12-18T03:17:27;100325.69;;;10.04;100.00
7376;BME280;3728;42.266;24.944;2022-12-18T03:20:06;100326.47;;;10.05;100.00
7376;BME280;3728;42.266;24.944;2022-12-18T03:22:38;100337.34;;;10.22;100.00
7376;BME280;3728;42.266;24.944;2022-12-18T03:25:08;100332.88;;;10.22;100.00
7376;BME280;3728;42.266;24.944;2022-12-18T03:27:44;100329.56;;;10.12;100.00
7376;BME280;3728;42.266;24.944;2022-12-18T03:30:16;100332.72;;;10.09;100.00
7376;BME280;3728;42.266;24.944;2022-12-18T03:32:48;100331.91;;;10.08;100.00
7376;BME280;3728;42.266;24.944;2022-12-18T03:35:31;100328.50;;;10.13;100.00
7376;BME280;3728;42.266;24.944;2022-12-18T03:38:03;100333.38;;;10.24;100.00
7376;BME280;3728;42.266;24.944;2022-12-18T03:46:38;100355.75;;;10.12;100.00
7376;BME280;3728;42.266;24.944;2022-12-18T03:52:26;100361.56;;;9.99;100.00
7376;BME280;3728;42.266;24.944;2022-12-18T03:54:57;100374.19;;;9.92;100.00
7376;BME280;3728;42.266;24.944;2022-12-18T03:57:28;100367.63;;;9.94;100.00
7376;BME280;3728;42.266;24.944;2022-12-18T04:00:08;100373.78;;;10.13;100.00
7376;BME280;3728;42.266;24.944;2022-12-18T04:02:52;100370.56;;;9.88;100.00
7376;BME280;3728;42.266;24.944;2022-12-18T04:05:29;100377.16;;;9.80;100.00
7376;BME280;3728;42.266;24.944;2022-12-18T04:07:58;100374.88;;;9.74;100.00
7376;BME280;3728;42.266;24.944;2022-12-18T04:10:26;100380.88;;;9.74;100.00
7376;BME280;3728;42.266;24.944;2022-12-18T04:12:57;100382.22;;;9.72;100.00
7376;BME280;3728;42.266;24.944;2022-12-18T04:15:26;100384.00;;;9.76;100.00
7376;BME280;3728;42.266;24.944;2022-12-18T04:17:54;100385.44;;;9.92;100.00
7376;BME280;3728;42.266;24.944;2022-12-18T04:20:24;100384.13;;;9.95;100.00
7376;BME280;3728;42.266;24.944;2022-12-18T04:22:52;100397.09;;;10.15;100.00
7376;BME280;3728;42.266;24.944;2022-12-18T04:25:20;100400.00;;;10.03;100.00
7376;BME280;3728;42.266;24.944;2022-12-18T04:28:03;100404.06;;;9.86;100.00
7376;BME280;3728;42.266;24.944;2022-12-18T04:30:32;100410.16;;;9.76;100.00
7376;BME280;3728;42.266;24.944;2022-12-18T04:33:00;100401.06;;;9.69;100.00
7376;BME280;3728;42.266;24.944;2022-12-18T04:35:29;100409.41;;;9.71;100.00
7376;BME280;3728;42.266;24.944;2022-12-18T04:37:57;100411.19;;;9.75;100.00
7376;BME280;3728;42.266;24.944;2022-12-18T04:40:26;100404.91;;;9.81;100.00
7376;BME280;3728;42.266;24.944;2022-12-18T04:42:54;100407.44;;;9.91;100.00
7376;BME280;3728;42.266;24.944;2022-12-18T04:45:21;100399.63;;;9.86;100.00
7376;BME280;3728;42.266;24.944;2022-12-18T04:47:49;100416.34;;;9.90;100.00
7376;BME280;3728;42.266;24.944;2022-12-18T04:50:17;100418.19;;;9.85;100.00
7376;BME280;3728;42.266;24.944;2022-12-18T04:52:44;100416.81;;;9.97;100.00
7376;BME280;3728;42.266;24.944;2022-12-18T04:55:12;100419.78;;;9.86;100.00
7376;BME280;3728;42.266;24.944;2022-12-18T04:57:39;100426.88;;;9.80;100.00
7376;BME280;3728;42.266;24.944;2022-12-18T05:00:07;100429.50;;;9.75;100.00
7376;BME280;3728;42.266;24.944;2022-12-18T05:02:36;100432.41;;;9.74;100.00
7376;BME280;3728;42.266;24.944;2022-12-18T05:05:04;100432.41;;;9.74;100.00
7376;BME280;3728;42.266;24.944;2022-12-18T05:07:32;100437.66;;;9.74;100.00
7376;BME280;3728;42.266;24.944;2022-12-18T05:10:00;100451.97;;;9.86;100.00
7376;BME280;3728;42.266;24.944;2022-12-18T05:12:28;100454.41;;;9.73;100.00
7376;BME280;3728;42.266;24.944;2022-12-18T05:14:55;100459.41;;;9.64;100.00
7376;BME280;3728;42.266;24.944;2022-12-18T05:17:23;100460.50;;;9.58;100.00
7376;BME280;3728;42.266;24.944;2022-12-18T05:19:50;100472.94;;;9.76;100.00
7376;BME280;3728;42.266;24.944;2022-12-18T05:22:17;100474.88;;;9.60;100.00
7376;BME280;3728;42.266;24.944;2022-12-18T05:24:45;100477.53;;;9.50;100.00
7376;BME280;3728;42.266;24.944;2022-12-18T05:27:13;100477.00;;;9.53;100.00
7376;BME280;3728;42.266;24.944;2022-12-18T05:29:40;100479.84;;;9.52;100.00
7376;BME280;3728;42.266;24.944;2022-12-18T05:32:08;100478.31;;;9.51;100.00
7376;BME280;3728;42.266;24.944;2022-12-18T05:34:35;100485.59;;;9.59;100.00
7376;BME280;3728;42.266;24.944;2022-12-18T05:37:03;100485.84;;;9.57;100.00
7376;BME280;3728;42.266;24.944;2022-12-18T05:39:30;100501.72;;;9.76;100.00
7376;BME280;3728;42.266;24.944;2022-12-18T05:41:57;100500.63;;;9.82;100.00
7376;BME280;3728;42.266;24.944;2022-12-18T05:44:25;100502.53;;;9.72;100.00
7376;BME280;3728;42.266;24.944;2022-12-18T05:46:52;100509.75;;;9.90;100.00
7376;BME280;3728;42.266;24.944;2022-12-18T05:49:20;100507.25;;;10.18;100.00
7376;BME280;3728;42.266;24.944;2022-12-18T05:51:48;100503.13;;;10.02;100.00
7376;BME280;3728;42.266;24.944;2022-12-18T05:54:15;100511.38;;;9.81;100.00
7376;BME280;3728;42.266;24.944;2022-12-18T05:56:43;100514.13;;;9.99;100.00
7376;BME280;3728;42.266;24.944;2022-12-18T05:59:14;100520.34;;;10.13;100.00
7376;BME280;3728;42.266;24.944;2022-12-18T06:01:41;100524.25;;;10.21;100.00
7376;BME280;3728;42.266;24.944;2022-12-18T06:04:09;100528.72;;;10.10;100.00
7376;BME280;3728;42.266;24.944;2022-12-18T06:06:38;100523.91;;;9.84;100.00
7376;BME280;3728;42.266;24.944;2022-12-18T06:09:06;100526.38;;;9.60;100.00
7376;BME280;3728;42.266;24.944;2022-12-18T06:11:36;100540.16;;;9.76;100.00
7376;BME280;3728;42.266;24.944;2022-12-18T06:14:05;100543.69;;;9.51;100.00
7376;BME280;3728;42.266;24.944;2022-12-18T06:16:33;100553.97;;;9.91;100.00
7376;BME280;3728;42.266;24.944;2022-12-18T06:19:03;100553.03;;;9.62;100.00
7376;BME280;3728;42.266;24.944;2022-12-18T06:21:34;100555.59;;;9.77;100.00
7376;BME280;3728;42.266;24.944;2022-12-18T06:24:01;100559.06;;;9.62;100.00
7376;BME280;3728;42.266;24.944;2022-12-18T06:26:29;100559.31;;;9.66;100.00
7376;BME280;3728;42.266;24.944;2022-12-18T06:28:57;100575.06;;;9.56;100.00
7376;BME280;3728;42.266;24.944;2022-12-18T06:31:25;100576.03;;;9.70;100.00
7376;BME280;3728;42.266;24.944;2022-12-18T06:33:53;100579.41;;;9.71;100.00
7376;BME280;3728;42.266;24.944;2022-12-18T06:36:20;100585.22;;;9.68;100.00
7376;BME280;3728;42.266;24.944;2022-12-18T06:38:48;100584.69;;;9.66;100.00
7376;BME280;3728;42.266;24.944;2022-12-18T06:41:18;100590.19;;;9.54;100.00
7376;BME280;3728;42.266;24.944;2022-12-18T06:43:47;100600.66;;;9.59;100.00
7376;BME280;3728;42.266;24.944;2022-12-18T06:46:14;100607.94;;;9.72;100.00
7376;BME280;3728;42.266;24.944;2022-12-18T06:48:48;100616.78;;;9.86;100.00
7376;BME280;3728;42.266;24.944;2022-12-18T06:51:21;100613.91;;;9.88;100.00
7376;BME280;3728;42.266;24.944;2022-12-18T06:53:52;100619.63;;;9.95;100.00
7376;BME280;3728;42.266;24.944;2022-12-18T06:56:20;100623.56;;;9.92;100.00
7376;BME280;3728;42.266;24.944;2022-12-18T06:58:48;100623.56;;;9.92;100.00
7376;BME280;3728;42.266;24.944;2022-12-18T07:01:16;100631.66;;;10.01;100.00
7376;BME280;3728;42.266;24.944;2022-12-18T07:03:44;100639.50;;;9.96;100.00
7376;BME280;3728;42.266;24.944;2022-12-18T07:06:18;100643.94;;;10.00;100.00
7376;BME280;3728;42.266;24.944;2022-12-18T07:08:46;100642.34;;;10.04;100.00
7376;BME280;3728;42.266;24.944;2022-12-18T07:11:16;100648.59;;;10.08;100.00
7376;BME280;3728;42.266;24.944;2022-12-18T07:13:45;100648.31;;;10.25;100.00
7376;BME280;3728;42.266;24.944;2022-12-18T07:16:19;100649.22;;;10.49;100.00
7376;BME280;3728;42.266;24.944;2022-12-18T07:18:52;100640.13;;;10.37;100.00
7376;BME280;3728;42.266;24.944;2022-12-18T07:21:21;100649.06;;;10.30;100.00
7376;BME280;3728;42.266;24.944;2022-12-18T07:23:50;100639.91;;;10.28;100.00
7376;BME280;3728;42.266;24.944;2022-12-18T07:26:19;100641.72;;;10.32;100.00
7376;BME280;3728;42.266;24.944;2022-12-18T07:28:48;100651.50;;;10.61;100.00
7376;BME280;3728;42.266;24.944;2022-12-18T07:31:19;100649.25;;;10.88;100.00
7376;BME280;3728;42.266;24.944;2022-12-18T07:33:49;100654.31;;;10.69;100.00
7376;BME280;3728;42.266;24.944;2022-12-18T07:36:17;100659.88;;;10.63;100.00
7376;BME280;3728;42.266;24.944;2022-12-18T07:38:48;100657.16;;;10.78;100.00
7376;BME280;3728;42.266;24.944;2022-12-18T07:41:19;100669.28;;;10.69;100.00
7376;BME280;3728;42.266;24.944;2022-12-18T07:43:47;100664.63;;;10.56;100.00
7376;BME280;3728;42.266;24.944;2022-12-18T07:46:16;100671.47;;;10.52;100.00
7376;BME280;3728;42.266;24.944;2022-12-18T07:48:44;100682.88;;;10.76;100.00
7376;BME280;3728;42.266;24.944;2022-12-18T07:51:16;100674.56;;;10.64;100.00
7376;BME280;3728;42.266;24.944;2022-12-18T07:53:45;100668.25;;;10.65;100.00
7376;BME280;3728;42.266;24.944;2022-12-18T07:56:18;100674.03;;;10.62;100.00
7376;BME280;3728;42.266;24.944;2022-12-18T07:58:56;100681.13;;;10.56;100.00
7376;BME280;3728;42.266;24.944;2022-12-18T08:01:24;100683.63;;;10.76;100.00
7376;BME280;3728;42.266;24.944;2022-12-18T08:03:52;100686.94;;;10.92;100.00
7376;BME280;3728;42.266;24.944;2022-12-18T08:06:20;100695.38;;;10.84;100.00
7376;BME280;3728;42.266;24.944;2022-12-18T08:08:54;100696.56;;;10.63;100.00
7376;BME280;3728;42.266;24.944;2022-12-18T08:11:24;100704.75;;;10.95;100.00
7376;BME280;3728;42.266;24.944;2022-12-18T08:13:55;100704.38;;;10.68;100.00
7376;BME280;3728;42.266;24.944;2022-12-18T08:16:24;100711.09;;;10.84;100.00
7376;BME280;3728;42.266;24.944;2022-12-18T08:18:53;100716.06;;;11.24;100.00
7376;BME280;3728;42.266;24.944;2022-12-18T08:21:24;100713.41;;;10.90;100.00
7376;BME280;3728;42.266;24.944;2022-12-18T08:24:00;100716.94;;;10.71;100.00
7376;BME280;3728;42.266;24.944;2022-12-18T08:26:32;100721.88;;;10.77;100.00
7376;BME280;3728;42.266;24.944;2022-12-18T08:29:00;100730.34;;;10.64;100.00
7376;BME280;3728;42.266;24.944;2022-12-18T08:31:29;100727.00;;;10.54;100.00
7376;BME280;3728;42.266;24.944;2022-12-18T08:34:01;100732.22;;;10.59;100.00
7376;BME280;3728;42.266;24.944;2022-12-18T08:36:29;100734.28;;;11.06;100.00
7376;BME280;3728;42.266;24.944;2022-12-18T08:38:57;100735.09;;;10.57;100.00
7376;BME280;3728;42.266;24.944;2022-12-18T08:41:25;100735.94;;;10.91;100.00
7376;BME280;3728;42.266;24.944;2022-12-18T08:43:53;100730.84;;;10.71;100.00
7376;BME280;3728;42.266;24.944;2022-12-18T08:46:41;100727.97;;;10.68;100.00
7376;BME280;3728;42.266;24.944;2022-12-18T08:49:11;100731.88;;;10.70;100.00
7376;BME280;3728;42.266;24.944;2022-12-18T08:51:39;100728.28;;;11.00;100.00
7376;BME280;3728;42.266;24.944;2022-12-18T08:54:06;100734.69;;;11.23;100.00
7376;BME280;3728;42.266;24.944;2022-12-18T08:56:35;100731.03;;;10.85;100.00
7376;BME280;3728;42.266;24.944;2022-12-18T08:59:05;100727.88;;;10.88;100.00
7376;BME280;3728;42.266;24.944;2022-12-18T09:01:55;100731.84;;;11.14;100.00
7376;BME280;3728;42.266;24.944;2022-12-18T09:04:23;100724.72;;;10.86;100.00
7376;BME280;3728;42.266;24.944;2022-12-18T09:06:50;100722.44;;;11.13;100.00
7376;BME280;3728;42.266;24.944;2022-12-18T09:09:22;100731.50;;;10.92;100.00
7376;BME280;3728;42.266;24.944;2022-12-18T09:11:49;100728.97;;;10.77;100.00
7376;BME280;3728;42.266;24.944;2022-12-18T09:14:17;100728.06;;;10.96;100.00
7376;BME280;3728;42.266;24.944;2022-12-18T09:16:45;100723.50;;;11.07;100.00
7376;BME280;3728;42.266;24.944;2022-12-18T09:19:12;100726.41;;;11.06;100.00
7376;BME280;3728;42.266;24.944;2022-12-18T09:21:40;100719.84;;;11.08;100.00
7376;BME280;3728;42.266;24.944;2022-12-18T09:24:14;100720.41;;;11.00;100.00
7376;BME280;3728;42.266;24.944;2022-12-18T09:26:43;100725.00;;;10.84;100.00
7376;BME280;3728;42.266;24.944;2022-12-18T09:29:14;100724.22;;;10.79;100.00
7376;BME280;3728;42.266;24.944;2022-12-18T09:31:44;100715.88;;;10.72;100.00
7376;BME280;3728;42.266;24.944;2022-12-18T09:34:12;100721.34;;;10.80;100.00
7376;BME280;3728;42.266;24.944;2022-12-18T09:36:39;100722.47;;;11.08;100.00
7376;BME280;3728;42.266;24.944;2022-12-18T09:39:07;100720.06;;;11.12;100.00
7376;BME280;3728;42.266;24.944;2022-12-18T09:44:44;100733.25;;;11.07;100.00
7376;BME280;3728;42.266;24.944;2022-12-18T09:47:34;100721.69;;;10.69;100.00
7376;BME280;3728;42.266;24.944;2022-12-18T09:50:17;100724.13;;;10.99;100.00
7376;BME280;3728;42.266;24.944;2022-12-18T09:52:53;100727.53;;;10.99;100.00
7376;BME280;3728;42.266;24.944;2022-12-18T09:55:36;100721.91;;;10.72;100.00
7376;BME280;3728;42.266;24.944;2022-12-18T10:00:58;100722.22;;;10.66;100.00
7376;BME280;3728;42.266;24.944;2022-12-18T10:03:26;100735.25;;;10.81;100.00
7376;BME280;3728;42.266;24.944;2022-12-18T10:08:41;100740.28;;;11.11;100.00
7376;BME280;3728;42.266;24.944;2022-12-18T10:14:23;100745.53;;;11.11;100.00
7376;BME280;3728;42.266;24.944;2022-12-18T10:20:27;100742.22;;;11.63;100.00
7376;BME280;3728;42.266;24.944;2022-12-18T10:28:29;100740.47;;;11.20;100.00
7376;BME280;3728;42.266;24.944;2022-12-18T10:30:59;100753.09;;;11.18;100.00
7376;BME280;3728;42.266;24.944;2022-12-18T10:33:30;100760.63;;;11.24;100.00
7376;BME280;3728;42.266;24.944;2022-12-18T10:36:00;100754.69;;;11.14;100.00
7376;BME280;3728;42.266;24.944;2022-12-18T10:38:31;100741.88;;;11.07;100.00
7376;BME280;3728;42.266;24.944;2022-12-18T10:41:00;100753.59;;;11.20;100.00
7376;BME280;3728;42.266;24.944;2022-12-18T10:51:07;100767.56;;;11.44;100.00
7376;BME280;3728;42.266;24.944;2022-12-18T10:53:40;100770.31;;;11.68;100.00
7376;BME280;3728;42.266;24.944;2022-12-18T10:56:10;100774.75;;;11.62;100.00
7376;BME280;3728;42.266;24.944;2022-12-18T10:58:40;100776.94;;;11.55;100.00
7376;BME280;3728;42.266;24.944;2022-12-18T11:01:14;100771.75;;;11.45;100.00
7376;BME280;3728;42.266;24.944;2022-12-18T11:03:59;100768.63;;;11.43;100.00
7376;BME280;3728;42.266;24.944;2022-12-18T11:06:29;100772.00;;;11.48;100.00
7376;BME280;3728;42.266;24.944;2022-12-18T11:09:05;100778.50;;;11.56;100.00
7376;BME280;3728;42.266;24.944;2022-12-18T11:11:52;100785.50;;;11.65;100.00
7376;BME280;3728;42.266;24.944;2022-12-18T11:14:32;100775.28;;;11.64;100.00
7376;BME280;3728;42.266;24.944;2022-12-18T11:17:30;100781.47;;;11.78;100.00
7376;BME280;3728;42.266;24.944;2022-12-18T11:20:04;100770.25;;;11.73;100.00
7376;BME280;3728;42.266;24.944;2022-12-18T11:22:36;100777.72;;;11.55;100.00
7376;BME280;3728;42.266;24.944;2022-12-18T11:28:25;100779.19;;;11.66;100.00
7376;BME280;3728;42.266;24.944;2022-12-18T11:31:27;100784.50;;;11.56;100.00
7376;BME280;3728;42.266;24.944;2022-12-18T11:36:57;100783.53;;;11.47;100.00
7376;BME280;3728;42.266;24.944;2022-12-18T11:39:35;100785.50;;;11.65;100.00
7376;BME280;3728;42.266;24.944;2022-12-18T11:45:26;100797.84;;;11.70;100.00
7376;BME280;3728;42.266;24.944;2022-12-18T11:48:04;100794.59;;;11.78;100.00
7376;BME280;3728;42.266;24.944;2022-12-18T11:51:25;100789.38;;;12.02;100.00
7376;BME280;3728;42.266;24.944;2022-12-18T11:54:14;100802.34;;;11.93;100.00
7376;BME280;3728;42.266;24.944;2022-12-18T11:59:53;100805.66;;;12.04;100.00
7376;BME280;3728;42.266;24.944;2022-12-18T12:15:12;100822.22;;;11.71;100.00
7376;BME280;3728;42.266;24.944;2022-12-18T12:21:04;100821.09;;;11.82;100.00
7376;BME280;3728;42.266;24.944;2022-12-18T12:27:20;100816.09;;;11.80;100.00
7376;BME280;3728;42.266;24.944;2022-12-18T12:36:34;100808.19;;;12.14;100.00
7376;BME280;3728;42.266;24.944;2022-12-18T12:39:23;100802.34;;;11.93;100.00
7376;BME280;3728;42.266;24.944;2022-12-18T12:41:59;100807.28;;;12.00;100.00
7376;BME280;3728;42.266;24.944;2022-12-18T12:44:51;100821.72;;;11.63;100.00
7376;BME280;3728;42.266;24.944;2022-12-18T12:47:44;100830.50;;;11.49;100.00
7376;BME280;3728;42.266;24.944;2022-12-18T12:50:16;100837.66;;;11.38;100.00
7376;BME280;3728;42.266;24.944;2022-12-18T12:52:53;100850.97;;;11.86;100.00
7376;BME280;3728;42.266;24.944;2022-12-18T12:55:25;100851.56;;;11.78;100.00
7376;BME280;3728;42.266;24.944;2022-12-18T12:58:02;100854.78;;;11.64;100.00
7376;BME280;3728;42.266;24.944;2022-12-18T13:04:25;100861.88;;;11.69;100.00
7376;BME280;3728;42.266;24.944;2022-12-18T13:07:41;100868.88;;;11.40;100.00
7376;BME280;3728;42.266;24.944;2022-12-18T13:13:03;100860.34;;;11.58;100.00
7376;BME280;3728;42.266;24.944;2022-12-18T13:16:07;100860.88;;;11.16;100.00
7376;BME280;3728;42.266;24.944;2022-12-18T13:18:37;100878.13;;;11.27;100.00
7376;BME280;3728;42.266;24.944;2022-12-18T13:21:25;100879.50;;;11.58;100.00
7376;BME280;3728;42.266;24.944;2022-12-18T13:23:56;100880.63;;;11.42;100.00
7376;BME280;3728;42.266;24.944;2022-12-18T13:26:42;100883.25;;;11.42;100.00
7376;BME280;3728;42.266;24.944;2022-12-18T13:29:09;100882.06;;;11.63;100.00
7376;BME280;3728;42.266;24.944;2022-12-18T13:34:30;100885.13;;;11.42;100.00
7376;BME280;3728;42.266;24.944;2022-12-18T13:40:01;100897.63;;;11.55;100.00
7376;BME280;3728;42.266;24.944;2022-12-18T13:42:49;100894.22;;;11.49;100.00
7376;BME280;3728;42.266;24.944;2022-12-18T13:45:38;100893.81;;;11.37;100.00
7376;BME280;3728;42.266;24.944;2022-12-18T13:48:22;100897.31;;;11.61;100.00
7376;BME280;3728;42.266;24.944;2022-12-18T13:51:01;100898.13;;;11.57;100.00
7376;BME280;3728;42.266;24.944;2022-12-18T13:53:54;100898.44;;;11.50;100.00
7376;BME280;3728;42.266;24.944;2022-12-18T13:56:32;100896.69;;;11.31;100.00
7376;BME280;3728;42.266;24.944;2022-12-18T13:59:22;100902.78;;;11.21;100.00
7376;BME280;3728;42.266;24.944;2022-12-18T14:02:17;100904.41;;;11.12;100.00
7376;BME280;3728;42.266;24.944;2022-12-18T14:04:50;100903.91;;;11.05;100.00
7376;BME280;3728;42.266;24.944;2022-12-18T14:07:20;100904.19;;;10.98;100.00
7376;BME280;3728;42.266;24.944;2022-12-18T14:09:52;100915.19;;;11.06;100.00
7376;BME280;3728;42.266;24.944;2022-12-18T14:13:06;100934.81;;;11.18;100.00
7376;BME280;3728;42.266;24.944;2022-12-18T14:16:04;100937.94;;;11.20;100.00
7376;BME280;3728;42.266;24.944;2022-12-18T14:18:45;100932.25;;;10.98;100.00
7376;BME280;3728;42.266;24.944;2022-12-18T14:21:25;100941.19;;;10.92;100.00
7376;BME280;3728;42.266;24.944;2022-12-18T14:24:18;100936.25;;;10.75;100.00
7376;BME280;3728;42.266;24.944;2022-12-18T14:26:49;100951.66;;;10.97;100.00
7376;BME280;3728;42.266;24.944;2022-12-18T14:29:29;100952.75;;;10.76;100.00
7376;BME280;3728;42.266;24.944;2022-12-18T14:34:49;100967.69;;;10.55;100.00
7376;BME280;3728;42.266;24.944;2022-12-18T14:37:25;100966.41;;;10.38;100.00
7376;BME280;3728;42.266;24.944;2022-12-18T14:39:58;100976.91;;;10.48;100.00
7376;BME280;3728;42.266;24.944;2022-12-18T14:42:37;100984.75;;;10.43;100.00
7376;BME280;3728;42.266;24.944;2022-12-18T14:48:49;100988.41;;;10.52;100.00
7376;BME280;3728;42.266;24.944;2022-12-18T14:51:22;100983.69;;;10.49;100.00
7376;BME280;3728;42.266;24.944;2022-12-18T14:54:04;100971.91;;;10.61;100.00
7376;BME280;3728;42.266;24.944;2022-12-18T14:56:44;100971.13;;;10.61;100.00
7376;BME280;3728;42.266;24.944;2022-12-18T14:59:24;100959.84;;;10.65;100.00
7376;BME280;3728;42.266;24.944;2022-12-18T15:04:44;100975.03;;;10.53;100.00
7376;BME280;3728;42.266;24.944;2022-12-18T15:07:20;100988.38;;;10.87;100.00
7376;BME280;3728;42.266;24.944;2022-12-18T15:10:15;100987.06;;;10.84;100.00
7376;BME280;3728;42.266;24.944;2022-12-18T15:13:08;100995.75;;;10.55;100.00
7376;BME280;3728;42.266;24.944;2022-12-18T15:15:44;100998.88;;;10.47;100.00
7376;BME280;3728;42.266;24.944;2022-12-18T15:18:18;101000.47;;;10.38;100.00
7376;BME280;3728;42.266;24.944;2022-12-18T15:20:56;101003.84;;;10.18;100.00
7376;BME280;3728;42.266;24.944;2022-12-18T15:26:07;101006.75;;;10.21;100.00
7376;BME280;3728;42.266;24.944;2022-12-18T15:28:56;101007.78;;;10.20;100.00
7376;BME280;3728;42.266;24.944;2022-12-18T15:31:31;101011.97;;;10.37;100.00
7376;BME280;3728;42.266;24.944;2022-12-18T15:34:12;101026.13;;;10.30;100.00
7376;BME280;3728;42.266;24.944;2022-12-18T15:36:47;101039.63;;;9.87;100.00
7376;BME280;3728;42.266;24.944;2022-12-18T15:39:17;101043.03;;;9.88;100.00